Time;durP1;ratioP1;P1;durP2;ratioP2;P2;SDS_P1;SDS_P2;PMS_P1;PMS_P2;Temp;Humidity;BMP_temperature;BMP_pressure;BME280_temperature;BME280_humidity;BME280_pressure;Samples;Min_cycle;Max_cycle;Signal;HPM_P1;HPM_P2
2023/04/21 00:00:12;;;;;;;47.55;30.45;;;;;;;;;;4954465;29;20113;-74
2023/04/21 00:02:38;;;;;;;49.70;31.40;;;;;;;;;;4955557;28;20031;-74
2023/04/21 00:05:09;;;;;;;42.92;29.00;;;;;;;;;;4955415;29;20481;-74
2023/04/21 00:07:39;;;;;;;42.42;28.08;;;;;;;;;;4955375;29;20023;-73
2023/04/21 00:10:08;;;;;;;54.25;31.75;;;;;;;;;;4955738;28;20035;-74
2023/04/21 00:12:34;;;;;;;45.85;30.42;;;;;;;;;;4955412;28;20027;-74
2023/04/21 00:15:00;;;;;;;50.92;30.08;;;;;;;;;;4955561;29;20265;-75
2023/04/21 00:17:26;;;;;;;51.00;30.77;;;;;;;;;;4955603;29;20418;-74
2023/04/21 00:19:53;;;;;;;44.53;28.23;;;;;;;;;;4955362;29;20178;-74
2023/04/21 00:22:20;;;;;;;47.20;28.65;;;;;;;;;;4955207;28;20030;-73
2023/04/21 00:24:46;;;;;;;44.15;29.75;;;;;;;;;;4955325;29;20044;-73
2023/04/21 00:27:12;;;;;;;46.35;29.38;;;;;;;;;;4955283;28;20023;-73
2023/04/21 00:29:39;;;;;;;51.63;30.48;;;;;;;;;;4955317;29;20023;-73
2023/04/21 00:32:07;;;;;;;47.42;30.13;;;;;;;;;;4955023;28;20020;-74
2023/04/21 00:34:33;;;;;;;48.00;30.30;;;;;;;;;;4952736;29;20514;-75
2023/04/21 00:36:59;;;;;;;44.45;29.10;;;;;;;;;;4954813;29;20127;-72
2023/04/21 00:39:25;;;;;;;51.67;30.60;;;;;;;;;;4955405;29;20027;-74
2023/04/21 00:41:51;;;;;;;48.33;31.30;;;;;;;;;;4955143;28;20089;-74
2023/04/21 00:44:17;;;;;;;48.55;31.10;;;;;;;;;;4953484;28;20500;-74
2023/04/21 00:46:43;;;;;;;49.75;31.15;;;;;;;;;;4954792;29;20031;-73
2023/04/21 00:49:09;;;;;;;49.42;30.85;;;;;;;;;;4953437;29;20034;-72
2023/04/21 00:51:36;;;;;;;48.92;30.63;;;;;;;;;;4954694;28;20027;-72
2023/04/21 00:54:04;;;;;;;54.65;33.60;;;;;;;;;;4954888;29;20027;-72
2023/04/21 00:56:31;;;;;;;52.97;32.67;;;;;;;;;;4954677;29;20042;-73
2023/04/21 00:58:57;;;;;;;44.67;29.23;;;;;;;;;;4937599;29;20039;-73
2023/04/21 01:01:23;;;;;;;52.25;31.75;;;;;;;;;;4954962;28;20031;-73
2023/04/21 01:03:50;;;;;;;50.83;29.75;;;;;;;;;;4954974;29;20039;-73
2023/04/21 01:06:17;;;;;;;43.30;29.50;;;;;;;;;;4954790;29;20024;-74
2023/04/21 01:08:45;;;;;;;49.38;31.17;;;;;;;;;;4954443;29;20041;-74
2023/04/21 01:11:11;;;;;;;45.85;28.95;;;;;;;;;;4954625;28;20037;-73
2023/04/21 01:13:38;;;;;;;48.67;28.02;;;;;;;;;;4954816;29;20447;-74
2023/04/21 01:16:05;;;;;;;55.78;33.20;;;;;;;;;;4954453;29;20027;-73
2023/04/21 01:18:31;;;;;;;55.13;31.58;;;;;;;;;;4954080;28;20129;-74
2023/04/21 01:20:58;;;;;;;53.85;31.38;;;;;;;;;;4954439;28;20082;-74
2023/04/21 01:23:24;;;;;;;66.40;35.13;;;;;;;;;;4954259;29;20117;-73
2023/04/21 01:25:50;;;;;;;50.08;30.17;;;;;;;;;;4953053;29;20023;-72
2023/04/21 01:28:21;;;;;;;52.58;31.50;;;;;;;;;;4953966;29;20073;-73
2023/04/21 01:30:47;;;;;;;57.70;32.15;;;;;;;;;;4952875;29;20027;-74
2023/04/21 01:33:13;;;;;;;65.65;35.80;;;;;;;;;;4953930;28;20082;-73
2023/04/21 01:35:39;;;;;;;55.72;32.85;;;;;;;;;;4954276;28;20470;-72
2023/04/21 01:38:05;;;;;;;56.75;34.05;;;;;;;;;;4953933;29;20019;-73
2023/04/21 01:40:31;;;;;;;49.92;30.92;;;;;;;;;;4954471;29;20031;-74
2023/04/21 01:42:58;;;;;;;73.07;40.22;;;;;;;;;;4953916;28;20167;-74
2023/04/21 01:45:24;;;;;;;72.40;38.90;;;;;;;;;;4954013;29;20059;-75
2023/04/21 01:47:50;;;;;;;67.53;39.38;;;;;;;;;;4953579;28;20027;-74
2023/04/21 01:50:17;;;;;;;63.55;36.08;;;;;;;;;;4953807;29;20491;-74
2023/04/21 01:52:43;;;;;;;62.67;36.20;;;;;;;;;;4953744;28;20102;-74
2023/04/21 01:55:09;;;;;;;56.30;33.35;;;;;;;;;;4953885;28;20390;-74
2023/04/21 01:57:35;;;;;;;58.83;36.05;;;;;;;;;;4953110;29;20030;-74
2023/04/21 02:00:01;;;;;;;57.53;35.08;;;;;;;;;;4953667;28;20031;-74
2023/04/21 02:02:28;;;;;;;55.67;33.45;;;;;;;;;;4952197;28;20122;-74
2023/04/21 02:04:54;;;;;;;66.10;36.38;;;;;;;;;;4953576;29;20034;-75
2023/04/21 02:07:20;;;;;;;64.15;36.78;;;;;;;;;;4953699;29;20019;-75
2023/04/21 02:09:46;;;;;;;64.80;35.85;;;;;;;;;;4953695;29;20046;-73
2023/04/21 02:12:12;;;;;;;63.13;33.13;;;;;;;;;;4953687;28;20101;-73
2023/04/21 02:14:38;;;;;;;61.78;33.75;;;;;;;;;;4953369;29;20051;-74
2023/04/21 02:17:04;;;;;;;52.42;32.47;;;;;;;;;;4953546;29;20030;-74
2023/04/21 02:19:30;;;;;;;55.45;32.92;;;;;;;;;;4952177;29;20056;-74
2023/04/21 02:21:56;;;;;;;46.63;29.73;;;;;;;;;;4953600;28;20020;-73
2023/04/21 02:24:22;;;;;;;62.63;34.50;;;;;;;;;;4953267;29;20027;-73
2023/04/21 02:26:48;;;;;;;61.53;34.58;;;;;;;;;;4953212;29;20482;-72
2023/04/21 02:29:14;;;;;;;49.03;31.77;;;;;;;;;;4953085;29;20082;-73
2023/04/21 02:31:40;;;;;;;52.58;31.70;;;;;;;;;;4953030;28;20023;-74
2023/04/21 02:34:06;;;;;;;59.90;33.45;;;;;;;;;;4953128;29;20051;-73
2023/04/21 02:36:33;;;;;;;59.13;32.53;;;;;;;;;;4953435;29;20031;-74
2023/04/21 02:38:59;;;;;;;56.22;33.40;;;;;;;;;;4952901;29;20059;-73
2023/04/21 02:41:25;;;;;;;65.43;34.80;;;;;;;;;;4951938;28;20031;-72
2023/04/21 02:43:50;;;;;;;44.90;29.08;;;;;;;;;;4951835;29;20515;-74
2023/04/21 02:46:16;;;;;;;64.82;35.15;;;;;;;;;;4953159;29;20028;-74
2023/04/21 02:48:42;;;;;;;57.85;32.60;;;;;;;;;;4952794;28;20370;-73
2023/04/21 02:51:15;;;;;;;52.78;30.08;;;;;;;;;;4953084;28;20154;-73
2023/04/21 02:53:41;;;;;;;55.13;31.55;;;;;;;;;;4953180;29;20031;-74
2023/04/21 02:56:07;;;;;;;57.78;33.40;;;;;;;;;;4953342;28;20517;-74
2023/04/21 02:58:35;;;;;;;55.15;31.02;;;;;;;;;;4952766;28;20115;-73
2023/04/21 03:01:02;;;;;;;56.60;31.27;;;;;;;;;;4952878;28;20035;-74
2023/04/21 03:03:28;;;;;;;49.70;31.15;;;;;;;;;;4953086;29;20401;-74
2023/04/21 03:06:01;;;;;;;52.25;31.08;;;;;;;;;;4953017;29;20101;-74
2023/04/21 03:08:27;;;;;;;51.67;29.80;;;;;;;;;;4954345;28;20027;-74
2023/04/21 03:10:53;;;;;;;48.92;29.83;;;;;;;;;;4956442;28;20031;-73
2023/04/21 03:13:19;;;;;;;47.65;28.98;;;;;;;;;;4952641;29;20474;-74
2023/04/21 03:15:46;;;;;;;49.45;29.00;;;;;;;;;;4957678;28;20065;-74
2023/04/21 03:18:12;;;;;;;48.40;29.42;;;;;;;;;;4953747;29;20474;-74
2023/04/21 03:20:38;;;;;;;52.95;30.60;;;;;;;;;;4953080;29;20114;-74
2023/04/21 03:23:04;;;;;;;49.90;29.25;;;;;;;;;;4956164;28;20027;-74
2023/04/21 03:25:30;;;;;;;49.30;30.13;;;;;;;;;;4955937;28;20086;-73
2023/04/21 03:27:56;;;;;;;48.33;29.10;;;;;;;;;;4955238;29;20028;-73
2023/04/21 03:30:24;;;;;;;44.83;29.10;;;;;;;;;;4956026;29;20015;-73
2023/04/21 03:32:50;;;;;;;51.70;30.25;;;;;;;;;;4955544;28;20035;-73
2023/04/21 03:35:16;;;;;;;54.05;31.77;;;;;;;;;;4955998;29;20051;-73
2023/04/21 03:37:42;;;;;;;63.80;32.05;;;;;;;;;;4955061;29;20034;-74
2023/04/21 03:40:09;;;;;;;50.10;29.58;;;;;;;;;;4955620;28;20039;-73
2023/04/21 03:42:35;;;;;;;50.25;29.98;;;;;;;;;;4955762;28;20027;-74
2023/04/21 03:45:05;;;;;;;49.22;29.58;;;;;;;;;;4956813;29;20027;-73
2023/04/21 03:47:31;;;;;;;46.40;27.60;;;;;;;;;;4953399;29;20135;-74
2023/04/21 03:49:57;;;;;;;47.45;30.63;;;;;;;;;;4955504;29;20075;-74
2023/04/21 03:52:23;;;;;;;57.92;30.90;;;;;;;;;;4955423;28;20034;-73
2023/04/21 03:54:49;;;;;;;56.85;31.52;;;;;;;;;;4955281;29;20027;-73
2023/04/21 03:57:16;;;;;;;49.35;30.13;;;;;;;;;;4954813;28;20027;-74
2023/04/21 03:59:42;;;;;;;54.15;30.20;;;;;;;;;;4956840;29;20027;-73
2023/04/21 04:02:08;;;;;;;45.22;28.15;;;;;;;;;;4955131;28;20114;-74
2023/04/21 04:04:34;;;;;;;49.28;29.52;;;;;;;;;;4956537;29;20426;-73
2023/04/21 04:07:00;;;;;;;55.33;30.63;;;;;;;;;;4955085;29;20032;-72
2023/04/21 04:09:26;;;;;;;50.65;30.17;;;;;;;;;;4955690;28;20023;-73
2023/04/21 04:11:52;;;;;;;56.13;32.08;;;;;;;;;;4956057;28;20027;-73
2023/04/21 04:14:18;;;;;;;63.55;35.65;;;;;;;;;;4955558;29;20050;-73
2023/04/21 04:16:44;;;;;;;71.00;37.97;;;;;;;;;;4955805;29;20027;-74
2023/04/21 04:19:10;;;;;;;60.75;35.63;;;;;;;;;;4955316;28;20023;-73
2023/04/21 04:21:37;;;;;;;56.50;32.20;;;;;;;;;;4956486;28;20023;-74
2023/04/21 04:24:04;;;;;;;58.40;34.15;;;;;;;;;;4956267;28;20031;-74
2023/04/21 04:26:32;;;;;;;46.58;30.58;;;;;;;;;;4956699;29;20034;-74
2023/04/21 04:29:01;;;;;;;53.08;32.10;;;;;;;;;;4955672;28;20031;-72
2023/04/21 04:31:28;;;;;;;62.33;35.88;;;;;;;;;;4956123;28;20553;-72
2023/04/21 04:33:54;;;;;;;77.05;42.28;;;;;;;;;;4953908;28;20505;-72
2023/04/21 04:36:20;;;;;;;87.22;48.28;;;;;;;;;;4951387;28;20027;-75
2023/04/21 04:38:46;;;;;;;74.00;42.53;;;;;;;;;;4954712;29;20019;-75
2023/04/21 04:41:12;;;;;;;76.60;43.85;;;;;;;;;;4955391;28;20031;-75
2023/04/21 04:43:41;;;;;;;49.75;34.95;;;;;;;;;;4954995;29;20045;-74
2023/04/21 04:46:11;;;;;;;43.38;28.48;;;;;;;;;;4955455;29;20044;-74
2023/04/21 04:48:37;;;;;;;35.10;23.67;;;;;;;;;;4955224;29;20026;-74
2023/04/21 04:51:03;;;;;;;40.13;20.48;;;;;;;;;;4966734;28;20031;-73
2023/04/21 04:53:29;;;;;;;27.85;16.63;;;;;;;;;;4954085;29;20062;-72
2023/04/21 04:55:57;;;;;;;28.48;16.00;;;;;;;;;;4954880;29;20474;-73
2023/04/21 04:58:23;;;;;;;19.38;14.63;;;;;;;;;;4954644;29;20027;-73
2023/04/21 05:00:49;;;;;;;19.00;13.65;;;;;;;;;;4954626;29;20027;-73
2023/04/21 05:03:15;;;;;;;20.63;12.93;;;;;;;;;;4954544;28;20494;-72
2023/04/21 05:05:41;;;;;;;19.55;13.30;;;;;;;;;;4954177;28;20035;-73
2023/04/21 05:08:07;;;;;;;20.83;13.68;;;;;;;;;;4954167;29;20034;-74
2023/04/21 05:10:33;;;;;;;21.90;13.32;;;;;;;;;;4954339;29;20098;-73
2023/04/21 05:12:59;;;;;;;19.35;12.77;;;;;;;;;;4954473;28;20537;-73
2023/04/21 05:15:25;;;;;;;18.67;13.00;;;;;;;;;;4954176;28;20073;-73
2023/04/21 05:17:51;;;;;;;18.85;12.57;;;;;;;;;;4954014;29;20050;-75
2023/04/21 05:20:17;;;;;;;19.88;13.40;;;;;;;;;;4954171;28;20027;-73
2023/04/21 05:22:43;;;;;;;18.38;13.88;;;;;;;;;;4954102;28;20027;-74
2023/04/21 05:25:14;;;;;;;18.63;12.75;;;;;;;;;;4953024;29;20094;-73
2023/04/21 05:27:42;;;;;;;18.00;12.68;;;;;;;;;;4953813;29;20051;-73
2023/04/21 05:30:08;;;;;;;17.23;12.35;;;;;;;;;;4953654;28;20025;-73
2023/04/21 05:32:35;;;;;;;18.67;12.07;;;;;;;;;;4953239;28;20027;-73
2023/04/21 05:35:01;;;;;;;18.30;12.68;;;;;;;;;;4954072;28;20038;-73
2023/04/21 05:37:27;;;;;;;17.10;11.55;;;;;;;;;;4952350;29;20403;-73
2023/04/21 05:39:53;;;;;;;15.95;12.25;;;;;;;;;;4952595;28;20034;-73
2023/04/21 05:42:19;;;;;;;14.68;10.70;;;;;;;;;;4953398;28;20031;-74
2023/04/21 05:44:45;;;;;;;17.63;11.77;;;;;;;;;;4936307;29;20459;-74
2023/04/21 05:47:11;;;;;;;20.08;12.23;;;;;;;;;;4951785;29;20057;-73
2023/04/21 05:49:37;;;;;;;24.63;12.07;;;;;;;;;;4952643;29;20106;-71
2023/04/21 05:52:03;;;;;;;19.48;12.57;;;;;;;;;;4953084;28;20023;-72
2023/04/21 05:54:29;;;;;;;17.50;13.48;;;;;;;;;;4951962;28;20027;-73
2023/04/21 05:56:55;;;;;;;21.70;12.13;;;;;;;;;;4949973;28;20490;-72
2023/04/21 05:59:21;;;;;;;22.15;13.45;;;;;;;;;;4939306;28;20482;-74
2023/04/21 06:01:47;;;;;;;22.20;12.70;;;;;;;;;;4948844;28;20636;-74
2023/04/21 06:04:13;;;;;;;21.83;13.68;;;;;;;;;;4953554;29;20032;-72
2023/04/21 06:06:39;;;;;;;20.75;13.55;;;;;;;;;;4952918;28;20023;-74
2023/04/21 06:09:06;;;;;;;24.48;12.20;;;;;;;;;;4952153;29;20063;-74
2023/04/21 06:11:32;;;;;;;20.63;12.38;;;;;;;;;;4953224;28;20027;-74
2023/04/21 06:13:59;;;;;;;20.10;13.32;;;;;;;;;;4953445;29;20106;-77
2023/04/21 06:16:26;;;;;;;17.75;12.20;;;;;;;;;;4951819;28;20561;-73
2023/04/21 06:18:52;;;;;;;17.45;11.07;;;;;;;;;;4953076;29;20043;-77
2023/04/21 06:21:18;;;;;;;23.70;12.00;;;;;;;;;;4953121;28;20508;-75
2023/04/21 06:23:44;;;;;;;18.05;11.80;;;;;;;;;;4953141;29;20027;-77
2023/04/21 06:26:11;;;;;;;15.60;11.30;;;;;;;;;;4953101;28;20445;-75
2023/04/21 06:28:38;;;;;;;16.02;12.15;;;;;;;;;;4953091;29;20027;-75
2023/04/21 06:31:04;;;;;;;19.50;12.18;;;;;;;;;;4951754;28;20015;-75
2023/04/21 06:33:30;;;;;;;20.65;11.43;;;;;;;;;;4953568;29;20030;-75
2023/04/21 06:35:56;;;;;;;16.02;10.57;;;;;;;;;;4953123;28;20401;-75
2023/04/21 06:38:22;;;;;;;18.02;12.38;;;;;;;;;;4953327;29;20027;-76
2023/04/21 06:40:48;;;;;;;21.33;12.75;;;;;;;;;;4952893;29;20038;-75
2023/04/21 06:43:15;;;;;;;16.85;9.68;;;;;;;;;;4956303;28;20020;-75
2023/04/21 06:45:41;;;;;;;18.70;9.90;;;;;;;;;;4957485;29;20031;-74
2023/04/21 06:48:07;;;;;;;13.98;9.93;;;;;;;;;;4955605;28;20035;-77
2023/04/21 06:50:33;;;;;;;18.48;10.43;;;;;;;;;;4939765;29;20038;-75
2023/04/21 06:52:59;;;;;;;21.50;11.07;;;;;;;;;;4955275;28;20102;-75
2023/04/21 06:55:25;;;;;;;20.02;11.07;;;;;;;;;;4956139;29;20083;-74
2023/04/21 06:57:51;;;;;;;15.15;7.15;;;;;;;;;;4955369;28;20027;-77
2023/04/21 07:00:17;;;;;;;11.52;7.10;;;;;;;;;;4954568;28;20118;-74
2023/04/21 07:02:43;;;;;;;12.25;7.10;;;;;;;;;;4955696;28;20436;-75
2023/04/21 07:05:09;;;;;;;13.00;7.32;;;;;;;;;;4956695;29;20051;-76
2023/04/21 07:07:35;;;;;;;13.95;7.03;;;;;;;;;;4956513;29;20020;-77
2023/04/21 07:10:01;;;;;;;16.77;6.22;;;;;;;;;;4956624;28;20406;-77
2023/04/21 07:12:27;;;;;;;11.32;6.32;;;;;;;;;;4956596;28;20032;-75
2023/04/21 07:14:53;;;;;;;18.90;6.97;;;;;;;;;;4954757;29;20027;-76
2023/04/21 07:17:19;;;;;;;15.25;6.90;;;;;;;;;;4953159;29;20058;-76
2023/04/21 07:19:45;;;;;;;12.60;5.80;;;;;;;;;;4954405;28;20489;-76
2023/04/21 07:22:11;;;;;;;13.10;6.10;;;;;;;;;;4954583;28;20035;-74
2023/04/21 07:24:38;;;;;;;13.63;6.15;;;;;;;;;;4953987;28;20503;-75
2023/04/21 07:27:04;;;;;;;16.65;6.05;;;;;;;;;;4954219;29;20073;-74
2023/04/21 07:29:30;;;;;;;10.40;5.63;;;;;;;;;;4954542;29;20574;-76
2023/04/21 07:31:57;;;;;;;16.08;6.25;;;;;;;;;;4956223;28;20426;-75
2023/04/21 07:34:23;;;;;;;14.82;6.47;;;;;;;;;;4956551;29;20118;-75
2023/04/21 07:36:50;;;;;;;13.23;6.25;;;;;;;;;;4954366;28;20031;-75
2023/04/21 07:39:16;;;;;;;12.98;5.72;;;;;;;;;;4954142;29;20490;-75
2023/04/21 07:41:42;;;;;;;15.02;6.25;;;;;;;;;;4954634;28;20110;-75
2023/04/21 07:44:08;;;;;;;15.57;6.65;;;;;;;;;;4954018;29;20058;-76
2023/04/21 07:46:34;;;;;;;17.08;5.85;;;;;;;;;;4954288;28;20457;-74
2023/04/21 07:49:00;;;;;;;11.90;5.75;;;;;;;;;;4949696;29;20023;-75
2023/04/21 07:51:26;;;;;;;11.45;5.35;;;;;;;;;;4943897;28;20023;-76
2023/04/21 07:53:53;;;;;;;16.52;6.05;;;;;;;;;;4954157;28;20030;-75
2023/04/21 07:56:19;;;;;;;9.88;5.40;;;;;;;;;;4956067;29;20031;-75
2023/04/21 07:58:45;;;;;;;14.75;5.90;;;;;;;;;;4954939;28;20031;-77
2023/04/21 08:01:11;;;;;;;14.13;6.25;;;;;;;;;;4953825;28;20486;-75
2023/04/21 08:03:37;;;;;;;14.60;5.72;;;;;;;;;;4955187;29;20034;-76
2023/04/21 08:06:03;;;;;;;10.02;5.95;;;;;;;;;;4955129;28;20019;-77
2023/04/21 08:08:29;;;;;;;14.40;5.78;;;;;;;;;;4955047;29;20027;-74
2023/04/21 08:10:55;;;;;;;14.02;5.97;;;;;;;;;;4955431;28;20018;-74
2023/04/21 08:13:24;;;;;;;12.05;5.50;;;;;;;;;;4954949;29;20035;-77
2023/04/21 08:15:53;;;;;;;14.77;5.97;;;;;;;;;;4955353;29;20082;-75
2023/04/21 08:18:19;;;;;;;11.68;5.50;;;;;;;;;;4955408;29;20023;-75
2023/04/21 08:20:48;;;;;;;10.73;5.65;;;;;;;;;;4954074;29;20078;-75
2023/04/21 08:23:15;;;;;;;9.73;5.43;;;;;;;;;;4955358;28;20393;-75
2023/04/21 08:25:41;;;;;;;12.55;5.80;;;;;;;;;;4955120;29;20027;-74
2023/04/21 08:28:07;;;;;;;17.13;5.38;;;;;;;;;;4955497;29;20098;-74
2023/04/21 08:30:33;;;;;;;15.23;5.45;;;;;;;;;;4955510;28;20504;-76
2023/04/21 08:32:59;;;;;;;13.43;5.35;;;;;;;;;;4955371;28;20043;-74
2023/04/21 08:35:25;;;;;;;14.13;5.22;;;;;;;;;;4955327;29;20101;-73
2023/04/21 08:37:51;;;;;;;13.82;4.85;;;;;;;;;;4957453;28;20557;-74
2023/04/21 08:40:18;;;;;;;13.10;5.05;;;;;;;;;;4955284;29;20103;-73
2023/04/21 08:42:44;;;;;;;7.50;4.38;;;;;;;;;;4954879;28;20170;-76
2023/04/21 08:45:11;;;;;;;13.85;5.10;;;;;;;;;;4955058;28;20027;-74
2023/04/21 08:47:40;;;;;;;10.10;4.35;;;;;;;;;;4954948;29;20106;-74
2023/04/21 08:50:07;;;;;;;12.20;4.20;;;;;;;;;;4955220;29;20019;-73
2023/04/21 08:52:33;;;;;;;10.13;4.45;;;;;;;;;;4954483;28;20027;-72
2023/04/21 08:55:00;;;;;;;12.35;4.20;;;;;;;;;;4953581;28;20042;-73
2023/04/21 08:57:26;;;;;;;12.00;4.50;;;;;;;;;;4954292;29;20118;-73
2023/04/21 08:59:51;;;;;;;13.48;4.07;;;;;;;;;;4954534;28;20102;-73
2023/04/21 09:02:19;;;;;;;11.63;4.32;;;;;;;;;;4954300;28;20035;-73
2023/04/21 09:04:46;;;;;;;12.48;4.03;;;;;;;;;;4954421;28;20027;-76
2023/04/21 09:07:12;;;;;;;17.63;3.97;;;;;;;;;;4954174;29;20114;-73
2023/04/21 09:10:07;;;;;;;14.57;3.47;;;;;;;;;;4954328;29;20442;-74
2023/04/21 09:12:33;;;;;;;11.68;3.40;;;;;;;;;;4939448;28;20031;-75
2023/04/21 09:15:04;;;;;;;9.43;3.38;;;;;;;;;;4952537;29;20027;-74
2023/04/21 09:17:35;;;;;;;11.20;3.90;;;;;;;;;;4953826;29;20401;-73
2023/04/21 09:20:12;;;;;;;13.02;3.30;;;;;;;;;;4954176;29;20123;-76
2023/04/21 09:22:38;;;;;;;10.40;3.63;;;;;;;;;;4954283;28;20031;-72
2023/04/21 09:25:04;;;;;;;11.98;3.55;;;;;;;;;;4953966;29;20504;-73
2023/04/21 09:27:30;;;;;;;11.73;3.28;;;;;;;;;;4952730;29;20367;-74
2023/04/21 09:30:02;;;;;;;10.73;3.00;;;;;;;;;;4954053;29;20110;-73
2023/04/21 09:32:28;;;;;;;7.75;3.33;;;;;;;;;;4952534;28;20397;-74
2023/04/21 09:34:59;;;;;;;12.90;3.63;;;;;;;;;;4953918;29;20106;-74
2023/04/21 09:37:25;;;;;;;;;;;;;;;;;;4954052;29;20050;-73
2023/04/21 09:39:51;;;;;;;9.63;3.00;;;;;;;;;;4953821;28;20379;-73
2023/04/21 09:42:17;;;;;;;15.63;3.30;;;;;;;;;;4953673;28;20496;-74
2023/04/21 09:44:43;;;;;;;8.43;2.72;;;;;;;;;;4953659;28;20514;-73
2023/04/21 09:47:11;;;;;;;14.25;2.78;;;;;;;;;;4953344;29;20092;-73
2023/04/21 09:49:43;;;;;;;16.75;3.63;;;;;;;;;;4953879;28;20026;-73
2023/04/21 09:52:11;;;;;;;9.70;2.97;;;;;;;;;;4953921;28;20027;-73
2023/04/21 09:54:43;;;;;;;12.02;2.85;;;;;;;;;;4953647;29;20027;-72
2023/04/21 09:57:10;;;;;;;9.65;2.80;;;;;;;;;;4953378;29;20031;-74
2023/04/21 09:59:36;;;;;;;9.75;3.28;;;;;;;;;;4953594;29;20035;-73
2023/04/21 10:02:06;;;;;;;13.07;3.25;;;;;;;;;;4953368;28;20040;-76
2023/04/21 10:04:33;;;;;;;21.13;3.35;;;;;;;;;;4952997;29;20505;-73
2023/04/21 10:07:02;;;;;;;9.10;3.08;;;;;;;;;;4953294;29;20397;-74
2023/04/21 10:09:53;;;;;;;13.60;3.35;;;;;;;;;;4953335;29;20031;-77
2023/04/21 10:12:19;;;;;;;22.40;3.23;;;;;;;;;;4942075;28;20126;-73
2023/04/21 10:14:45;;;;;;;13.05;3.00;;;;;;;;;;4953457;29;20258;-73
2023/04/21 10:17:12;;;;;;;16.02;3.10;;;;;;;;;;4952543;28;20031;-73
2023/04/21 10:19:47;;;;;;;13.02;2.97;;;;;;;;;;4952039;28;20023;-73
2023/04/21 10:22:13;;;;;;;11.38;2.90;;;;;;;;;;4953428;28;20473;-76
2023/04/21 10:24:39;;;;;;;11.63;2.53;;;;;;;;;;4953158;29;20027;-76
2023/04/21 10:27:09;;;;;;;10.88;2.80;;;;;;;;;;4953035;29;20038;-73
2023/04/21 10:29:35;;;;;;;13.90;3.33;;;;;;;;;;4953089;28;20086;-72
2023/04/21 10:32:01;;;;;;;12.45;3.13;;;;;;;;;;4953331;28;20027;-73
2023/04/21 10:34:37;;;;;;;8.82;2.80;;;;;;;;;;4935701;29;20122;-73
2023/04/21 10:37:03;;;;;;;9.13;2.58;;;;;;;;;;4937917;29;20027;-76
2023/04/21 10:39:30;;;;;;;18.17;3.35;;;;;;;;;;4953648;29;20037;-75
2023/04/21 10:42:15;;;;;;;14.45;3.75;;;;;;;;;;4952871;28;20106;-74
2023/04/21 10:44:41;;;;;;;12.18;2.75;;;;;;;;;;4952895;29;20025;-74
2023/04/21 10:47:07;;;;;;;11.80;3.28;;;;;;;;;;4952892;29;20513;-75
2023/04/21 10:49:37;;;;;;;9.25;2.78;;;;;;;;;;4951703;28;20478;-74
2023/04/21 10:52:04;;;;;;;9.80;3.13;;;;;;;;;;4951021;28;20023;-74
2023/04/21 10:54:36;;;;;;;8.55;2.75;;;;;;;;;;4952998;29;20386;-74
2023/04/21 10:57:05;;;;;;;8.40;2.65;;;;;;;;;;4939678;29;20427;-74
2023/04/21 10:59:31;;;;;;;8.50;2.83;;;;;;;;;;4952736;29;20039;-74
2023/04/21 11:01:57;;;;;;;8.48;2.70;;;;;;;;;;4952619;28;20058;-74
2023/04/21 11:04:23;;;;;;;12.60;2.70;;;;;;;;;;4952844;29;20062;-74
2023/04/21 11:07:11;;;;;;;13.57;3.10;;;;;;;;;;4952612;29;20490;-74
2023/04/21 11:09:38;;;;;;;20.08;2.85;;;;;;;;;;4952830;29;20027;-74
2023/04/21 11:12:06;;;;;;;7.05;2.53;;;;;;;;;;4952841;28;20035;-74
2023/04/21 11:14:34;;;;;;;7.68;2.55;;;;;;;;;;4952623;28;20105;-73
2023/04/21 11:17:00;;;;;;;9.43;2.95;;;;;;;;;;4952701;29;20397;-73
2023/04/21 11:19:26;;;;;;;13.63;3.25;;;;;;;;;;4951407;29;20119;-74
2023/04/21 11:21:55;;;;;;;10.80;3.05;;;;;;;;;;4952802;28;20047;-74
2023/04/21 11:24:21;;;;;;;10.48;3.10;;;;;;;;;;4948248;29;20070;-73
2023/04/21 11:26:47;;;;;;;11.50;2.95;;;;;;;;;;4952591;29;20052;-74
2023/04/21 11:29:14;;;;;;;11.85;3.47;;;;;;;;;;4953327;28;20082;-74
2023/04/21 11:31:41;;;;;;;6.95;2.22;;;;;;;;;;4956301;28;20023;-73
2023/04/21 11:34:09;;;;;;;10.90;2.53;;;;;;;;;;4956037;29;20059;-73
2023/04/21 11:36:37;;;;;;;13.55;3.22;;;;;;;;;;4956244;29;20031;-71
2023/04/21 11:39:06;;;;;;;11.65;2.50;;;;;;;;;;4955740;28;20170;-75
2023/04/21 11:41:33;;;;;;;12.38;3.03;;;;;;;;;;4955340;28;20034;-74
2023/04/21 11:43:59;;;;;;;8.20;2.60;;;;;;;;;;4953279;29;20031;-74
2023/04/21 11:46:26;;;;;;;12.40;3.28;;;;;;;;;;4953051;29;20110;-72
2023/04/21 11:48:58;;;;;;;9.32;2.95;;;;;;;;;;4953867;29;20031;-72
2023/04/21 11:51:24;;;;;;;7.18;2.80;;;;;;;;;;4953327;28;20030;-73
2023/04/21 11:53:50;;;;;;;8.15;2.72;;;;;;;;;;4954088;29;20549;-73
2023/04/21 11:56:23;;;;;;;7.93;2.83;;;;;;;;;;4954153;29;20780;-72
2023/04/21 11:58:53;;;;;;;8.93;2.83;;;;;;;;;;4955325;29;20034;-72
2023/04/21 12:01:20;;;;;;;8.05;2.53;;;;;;;;;;4955604;28;20041;-73
2023/04/21 12:03:55;;;;;;;10.57;2.95;;;;;;;;;;4956859;29;20101;-73
2023/04/21 12:06:22;;;;;;;12.75;3.10;;;;;;;;;;4955651;29;20033;-72
2023/04/21 12:08:49;;;;;;;9.57;2.88;;;;;;;;;;4955172;29;20051;-73
2023/04/21 12:11:18;;;;;;;12.23;3.22;;;;;;;;;;4955907;28;20027;-72
2023/04/21 12:13:44;;;;;;;9.27;2.95;;;;;;;;;;4954256;29;20023;-73
2023/04/21 12:16:12;;;;;;;5.75;2.35;;;;;;;;;;4955450;29;20015;-73
2023/04/21 12:18:38;;;;;;;8.23;3.15;;;;;;;;;;4955131;29;20743;-73
2023/04/21 12:21:04;;;;;;;6.88;2.53;;;;;;;;;;4955192;28;20031;-73
2023/04/21 12:23:30;;;;;;;8.05;2.60;;;;;;;;;;4955416;29;20034;-73
2023/04/21 12:25:57;;;;;;;7.20;2.28;;;;;;;;;;4955429;29;20391;-75
2023/04/21 12:28:23;;;;;;;7.97;3.17;;;;;;;;;;4953967;29;20019;-73
2023/04/21 12:30:49;;;;;;;5.68;1.88;;;;;;;;;;4955491;29;20106;-73
2023/04/21 12:33:15;;;;;;;8.77;2.80;;;;;;;;;;4955194;28;20485;-73
2023/04/21 12:35:41;;;;;;;8.15;2.63;;;;;;;;;;4955440;29;20078;-73
2023/04/21 12:38:07;;;;;;;7.22;2.50;;;;;;;;;;4954923;29;20027;-74
2023/04/21 12:40:33;;;;;;;5.90;2.60;;;;;;;;;;4957190;28;20034;-74
2023/04/21 12:42:59;;;;;;;9.32;2.55;;;;;;;;;;4957208;28;20054;-73
2023/04/21 12:45:25;;;;;;;11.75;2.97;;;;;;;;;;4955195;29;20034;-74
2023/04/21 12:47:51;;;;;;;10.48;3.35;;;;;;;;;;4956659;29;20074;-74
2023/04/21 12:50:17;;;;;;;9.27;2.67;;;;;;;;;;4955872;29;20023;-73
2023/04/21 12:52:43;;;;;;;10.98;2.55;;;;;;;;;;4955181;28;20027;-73
2023/04/21 12:55:09;;;;;;;11.27;3.10;;;;;;;;;;4954772;29;20029;-73
2023/04/21 12:57:35;;;;;;;6.88;2.58;;;;;;;;;;4954619;29;20123;-74
2023/04/21 13:00:03;;;;;;;15.65;3.22;;;;;;;;;;4954771;29;20031;-73
2023/04/21 13:02:35;;;;;;;7.60;2.78;;;;;;;;;;4954479;28;20062;-74
2023/04/21 13:05:03;;;;;;;7.43;2.78;;;;;;;;;;4954531;29;20146;-73
2023/04/21 13:07:30;;;;;;;8.63;2.50;;;;;;;;;;4954573;29;20030;-74
2023/04/21 13:09:56;;;;;;;5.50;2.28;;;;;;;;;;4954749;29;20023;-74
2023/04/21 13:12:22;;;;;;;4.80;2.40;;;;;;;;;;4953273;28;20454;-72
2023/04/21 13:14:49;;;;;;;10.90;2.42;;;;;;;;;;4954533;29;20027;-72
2023/04/21 13:17:15;;;;;;;6.53;2.75;;;;;;;;;;4954211;29;20027;-72
2023/04/21 13:19:41;;;;;;;6.72;2.53;;;;;;;;;;4954422;29;20534;-72
2023/04/21 13:22:07;;;;;;;11.77;2.85;;;;;;;;;;4954197;28;20027;-73
2023/04/21 13:24:34;;;;;;;9.30;2.47;;;;;;;;;;4952926;29;20100;-73
2023/04/21 13:27:00;;;;;;;7.43;2.33;;;;;;;;;;4954316;29;20023;-75
2023/04/21 13:29:33;;;;;;;8.90;2.65;;;;;;;;;;4952740;29;20034;-74
2023/04/21 13:32:06;;;;;;;10.48;2.85;;;;;;;;;;4954086;28;20023;-73
2023/04/21 13:34:32;;;;;;;6.35;2.63;;;;;;;;;;4954095;29;20534;-73
2023/04/21 13:36:59;;;;;;;8.23;2.40;;;;;;;;;;4952694;29;20023;-72
2023/04/21 13:39:25;;;;;;;7.35;2.20;;;;;;;;;;4954023;29;20020;-73
2023/04/21 13:41:51;;;;;;;9.60;2.75;;;;;;;;;;4954089;28;20106;-73
2023/04/21 13:44:18;;;;;;;8.05;2.55;;;;;;;;;;4954207;29;20105;-74
2023/04/21 13:46:44;;;;;;;9.68;2.75;;;;;;;;;;4952477;29;20033;-73
2023/04/21 13:49:10;;;;;;;8.32;2.30;;;;;;;;;;4953903;29;20035;-72
2023/04/21 13:51:36;;;;;;;6.53;2.40;;;;;;;;;;4953069;28;20038;-72
2023/04/21 13:54:02;;;;;;;6.03;2.80;;;;;;;;;;4952622;29;20023;-71
2023/04/21 13:56:28;;;;;;;6.47;2.63;;;;;;;;;;4953999;29;20082;-73
2023/04/21 13:58:54;;;;;;;6.25;2.28;;;;;;;;;;4952165;29;20054;-73
2023/04/21 14:01:20;;;;;;;4.78;2.40;;;;;;;;;;4953128;28;20158;-74
2023/04/21 14:03:46;;;;;;;9.43;2.72;;;;;;;;;;4953941;29;20027;-74
2023/04/21 14:06:12;;;;;;;7.57;2.47;;;;;;;;;;4953976;29;20042;-73
2023/04/21 14:08:39;;;;;;;7.53;2.15;;;;;;;;;;4953606;29;20051;-74
2023/04/21 14:11:05;;;;;;;6.53;2.30;;;;;;;;;;4953830;28;20034;-73
2023/04/21 14:13:31;;;;;;;7.10;2.67;;;;;;;;;;4953801;29;20054;-74
2023/04/21 14:15:57;;;;;;;6.05;2.53;;;;;;;;;;4951773;28;20043;-74
2023/04/21 14:18:23;;;;;;;8.45;2.90;;;;;;;;;;4953080;29;20486;-74
2023/04/21 14:20:49;;;;;;;7.30;2.63;;;;;;;;;;4951622;28;20035;-74
2023/04/21 14:23:15;;;;;;;11.45;3.38;;;;;;;;;;4951622;28;20035;-75